SCO26RS EGPF-EGPL
Flight info
| Callsign | SCO26RS |
|---|---|
| Flight time | 0h 48m |
| Altitude | 16000 |
| Route | CLYDE Q602 BRUCE Y958 TOBMO DCT BEN |
| Aircraft | AT76/M-SDFGIRY/S |
Departure
| Time | 2026-04-27 20:16 |
|---|---|
| Airport | Glasgow Airport (EGPF) |
Arrival
| Time | 2026-04-27 21:05 |
|---|---|
| Airport | Benbecula Airport (EGPL) |
| Time | Latitude | Longitude | Altitude | Speed | Heading |
|---|---|---|---|---|---|
| 2026-04-27 19:43 | 55.86603 | -4.42985 | 25 ft | 0 kts | 254° |
| 2026-04-27 20:10 | 55.86603 | -4.42984 | 25 ft | 1 kts | 254° |
| 2026-04-27 20:10 | 55.86606 | -4.42961 | 29 ft | 3 kts | 254° |
| 2026-04-27 20:11 | 55.86615 | -4.42910 | 26 ft | 5 kts | 254° |
| 2026-04-27 20:11 | 55.86616 | -4.42899 | 27 ft | 0 kts | 254° |
| 2026-04-27 20:12 | 55.86616 | -4.42901 | 27 ft | 0 kts | 261° |
| 2026-04-27 20:12 | 55.86620 | -4.42904 | 30 ft | 2 kts | 317° |
| 2026-04-27 20:12 | 55.86684 | -4.42937 | 25 ft | 16 kts | 345° |
| 2026-04-27 20:12 | 55.86785 | -4.42988 | 28 ft | 14 kts | 345° |
| 2026-04-27 20:13 | 55.86839 | -4.43096 | 25 ft | 14 kts | 255° |
| 2026-04-27 20:13 | 55.86812 | -4.43275 | 25 ft | 16 kts | 256° |
| 2026-04-27 20:13 | 55.86778 | -4.43477 | 25 ft | 18 kts | 254° |
| 2026-04-27 20:13 | 55.86741 | -4.43703 | 25 ft | 20 kts | 251° |
| 2026-04-27 20:14 | 55.86659 | -4.43895 | 25 ft | 20 kts | 226° |
| 2026-04-27 20:14 | 55.86563 | -4.44075 | 27 ft | 20 kts | 227° |
| 2026-04-27 20:14 | 55.86467 | -4.44253 | 28 ft | 20 kts | 226° |
| 2026-04-27 20:14 | 55.86373 | -4.44430 | 27 ft | 20 kts | 226° |
| 2026-04-27 20:15 | 55.86274 | -4.44619 | 29 ft | 22 kts | 227° |
| 2026-04-27 20:15 | 55.86296 | -4.44786 | 25 ft | 12 kts | 317° |
| 2026-04-27 20:15 | 55.86361 | -4.44864 | 28 ft | 9 kts | 12° |
| 2026-04-27 20:15 | 55.86405 | -4.44804 | 25 ft | 8 kts | 44° |
| 2026-04-27 20:16 | 55.86579 | -4.44478 | 27 ft | 70 kts | 47° |
| 2026-04-27 20:16 | 55.87051 | -4.43611 | 70 ft | 116 kts | 44° |
| 2026-04-27 20:16 | 55.87640 | -4.42603 | 595 ft | 117 kts | 42° |
| 2026-04-27 20:16 | 55.88263 | -4.41612 | 1153 ft | 121 kts | 43° |
| 2026-04-27 20:17 | 55.88892 | -4.40583 | 1689 ft | 126 kts | 45° |
| 2026-04-27 20:17 | 55.89532 | -4.39521 | 2267 ft | 127 kts | 44° |
| 2026-04-27 20:17 | 55.90172 | -4.38284 | 2546 ft | 152 kts | 52° |
| 2026-04-27 20:17 | 55.90627 | -4.37251 | 2784 ft | 157 kts | 53° |
| 2026-04-27 20:18 | 55.91553 | -4.35206 | 3302 ft | 160 kts | 50° |
| 2026-04-27 20:18 | 55.92293 | -4.33727 | 3746 ft | 160 kts | 42° |
| 2026-04-27 20:18 | 55.93329 | -4.33202 | 4156 ft | 163 kts | 348° |
| 2026-04-27 20:18 | 55.94196 | -4.34477 | 4575 ft | 171 kts | 296° |
| 2026-04-27 20:19 | 55.94223 | -4.36580 | 4970 ft | 176 kts | 255° |
| 2026-04-27 20:19 | 55.93852 | -4.38680 | 5340 ft | 179 kts | 256° |
| 2026-04-27 20:19 | 55.93529 | -4.40819 | 5763 ft | 179 kts | 259° |
| 2026-04-27 20:19 | 55.93227 | -4.42989 | 6188 ft | 180 kts | 259° |
| 2026-04-27 20:20 | 55.92987 | -4.45165 | 6583 ft | 180 kts | 265° |
| 2026-04-27 20:20 | 55.92863 | -4.47389 | 6966 ft | 180 kts | 271° |
| 2026-04-27 20:20 | 55.92851 | -4.49623 | 7347 ft | 181 kts | 275° |
| 2026-04-27 20:20 | 55.92928 | -4.51860 | 7733 ft | 181 kts | 279° |
| 2026-04-27 20:21 | 55.93064 | -4.54101 | 8106 ft | 182 kts | 281° |
| 2026-04-27 20:21 | 55.93229 | -4.56355 | 8479 ft | 184 kts | 282° |
| 2026-04-27 20:21 | 55.93386 | -4.58623 | 8860 ft | 185 kts | 282° |
| 2026-04-27 20:21 | 55.93538 | -4.60878 | 9229 ft | 186 kts | 282° |
| 2026-04-27 20:22 | 55.93691 | -4.63206 | 9611 ft | 187 kts | 282° |
| 2026-04-27 20:22 | 55.93841 | -4.65514 | 9975 ft | 188 kts | 282° |
| 2026-04-27 20:22 | 55.93994 | -4.67843 | 10337 ft | 189 kts | 282° |
| 2026-04-27 20:22 | 55.94145 | -4.70172 | 10651 ft | 190 kts | 283° |
| 2026-04-27 20:23 | 55.94401 | -4.72447 | 10942 ft | 184 kts | 299° |
| 2026-04-27 20:23 | 55.94953 | -4.74503 | 11272 ft | 183 kts | 304° |
| 2026-04-27 20:23 | 55.95542 | -4.76528 | 11584 ft | 184 kts | 304° |
| 2026-04-27 20:23 | 55.96127 | -4.78554 | 11933 ft | 184 kts | 304° |
| 2026-04-27 20:24 | 55.96704 | -4.80568 | 12263 ft | 185 kts | 304° |
| 2026-04-27 20:24 | 55.97275 | -4.82630 | 12577 ft | 186 kts | 304° |
| 2026-04-27 20:24 | 55.97836 | -4.84710 | 12825 ft | 190 kts | 304° |
| 2026-04-27 20:24 | 55.98437 | -4.86941 | 12966 ft | 199 kts | 303° |
| 2026-04-27 20:25 | 55.99025 | -4.89162 | 13246 ft | 200 kts | 303° |
| 2026-04-27 20:25 | 55.99618 | -4.91410 | 13527 ft | 201 kts | 303° |
| 2026-04-27 20:25 | 56.00213 | -4.93662 | 13802 ft | 201 kts | 303° |
| 2026-04-27 20:25 | 56.00811 | -4.95924 | 14133 ft | 202 kts | 303° |
| 2026-04-27 20:26 | 56.01405 | -4.98207 | 14400 ft | 203 kts | 303° |
| 2026-04-27 20:26 | 56.01993 | -5.00494 | 14669 ft | 203 kts | 303° |
| 2026-04-27 20:26 | 56.02580 | -5.02793 | 14935 ft | 203 kts | 303° |
| 2026-04-27 20:26 | 56.03169 | -5.05080 | 15177 ft | 203 kts | 304° |
| 2026-04-27 20:27 | 56.03764 | -5.07361 | 15422 ft | 203 kts | 304° |
| 2026-04-27 20:27 | 56.04361 | -5.09648 | 15641 ft | 203 kts | 304° |
| 2026-04-27 20:27 | 56.04956 | -5.11940 | 15834 ft | 205 kts | 304° |
| 2026-04-27 20:27 | 56.05579 | -5.14288 | 15911 ft | 213 kts | 304° |
| 2026-04-27 20:28 | 56.06236 | -5.16716 | 16010 ft | 217 kts | 305° |
| 2026-04-27 20:28 | 56.06886 | -5.19134 | 16222 ft | 216 kts | 305° |
| 2026-04-27 20:28 | 56.07540 | -5.21574 | 16328 ft | 220 kts | 304° |
| 2026-04-27 20:28 | 56.07974 | -5.23220 | 16368 ft | 223 kts | 304° |
| 2026-04-27 20:29 | 56.08875 | -5.26652 | 16381 ft | 231 kts | 304° |
| 2026-04-27 20:29 | 56.09559 | -5.29278 | 16393 ft | 235 kts | 303° |
| 2026-04-27 20:29 | 56.10254 | -5.31950 | 16407 ft | 238 kts | 303° |
| 2026-04-27 20:29 | 56.10956 | -5.34653 | 16406 ft | 241 kts | 303° |
| 2026-04-27 20:30 | 56.11667 | -5.37382 | 16408 ft | 243 kts | 303° |
| 2026-04-27 20:30 | 56.12384 | -5.40142 | 16414 ft | 245 kts | 303° |
| 2026-04-27 20:30 | 56.13102 | -5.42913 | 16411 ft | 247 kts | 303° |
| 2026-04-27 20:30 | 56.13827 | -5.45718 | 16410 ft | 248 kts | 303° |
| 2026-04-27 20:31 | 56.14553 | -5.48518 | 16413 ft | 248 kts | 303° |
| 2026-04-27 20:31 | 56.15277 | -5.51336 | 16412 ft | 249 kts | 303° |
| 2026-04-27 20:31 | 56.16004 | -5.54152 | 16415 ft | 249 kts | 302° |
| 2026-04-27 20:31 | 56.16731 | -5.56973 | 16413 ft | 249 kts | 302° |
| 2026-04-27 20:32 | 56.17458 | -5.59803 | 16415 ft | 249 kts | 302° |
| 2026-04-27 20:32 | 56.18174 | -5.62589 | 16412 ft | 249 kts | 302° |
| 2026-04-27 20:32 | 56.18899 | -5.65411 | 16412 ft | 249 kts | 302° |
| 2026-04-27 20:32 | 56.19623 | -5.68243 | 16419 ft | 249 kts | 302° |
| 2026-04-27 20:33 | 56.20346 | -5.71070 | 16418 ft | 249 kts | 302° |
| 2026-04-27 20:33 | 56.21070 | -5.73900 | 16417 ft | 249 kts | 302° |
| 2026-04-27 20:33 | 56.21793 | -5.76733 | 16413 ft | 249 kts | 302° |
| 2026-04-27 20:33 | 56.22512 | -5.79563 | 16417 ft | 248 kts | 302° |
| 2026-04-27 20:34 | 56.23230 | -5.82378 | 16423 ft | 247 kts | 302° |
| 2026-04-27 20:34 | 56.24198 | -5.84773 | 16416 ft | 232 kts | 324° |
| 2026-04-27 20:34 | 56.25468 | -5.86523 | 16426 ft | 230 kts | 331° |
| 2026-04-27 20:34 | 56.26823 | -5.88073 | 16422 ft | 230 kts | 333° |
| 2026-04-27 20:35 | 56.28189 | -5.89577 | 16420 ft | 230 kts | 333° |
| 2026-04-27 20:35 | 56.29553 | -5.91096 | 16419 ft | 231 kts | 332° |
| 2026-04-27 20:35 | 56.30904 | -5.92666 | 16424 ft | 231 kts | 331° |
| 2026-04-27 20:35 | 56.32246 | -5.94251 | 16427 ft | 231 kts | 332° |
| 2026-04-27 20:36 | 56.33591 | -5.95853 | 16421 ft | 231 kts | 331° |
| 2026-04-27 20:36 | 56.34935 | -5.97443 | 16424 ft | 231 kts | 331° |
| 2026-04-27 20:36 | 56.36276 | -5.99035 | 16435 ft | 231 kts | 331° |
| 2026-04-27 20:36 | 56.37625 | -6.00633 | 16442 ft | 232 kts | 331° |
| 2026-04-27 20:37 | 56.38975 | -6.02242 | 16433 ft | 232 kts | 331° |
| 2026-04-27 20:37 | 56.40325 | -6.03847 | 16424 ft | 232 kts | 331° |
| 2026-04-27 20:37 | 56.41670 | -6.05451 | 16432 ft | 231 kts | 331° |
| 2026-04-27 20:37 | 56.43017 | -6.07056 | 16445 ft | 232 kts | 331° |
| 2026-04-27 20:38 | 56.44366 | -6.08669 | 16435 ft | 233 kts | 331° |
| 2026-04-27 20:38 | 56.45720 | -6.10287 | 16427 ft | 234 kts | 331° |
| 2026-04-27 20:38 | 56.47078 | -6.11910 | 16424 ft | 234 kts | 331° |
| 2026-04-27 20:38 | 56.47976 | -6.12987 | 16431 ft | 234 kts | 331° |
| 2026-04-27 20:39 | 56.49788 | -6.15158 | 16432 ft | 233 kts | 331° |
| 2026-04-27 20:39 | 56.50683 | -6.16232 | 16436 ft | 233 kts | 331° |
| 2026-04-27 20:39 | 56.52036 | -6.17854 | 16433 ft | 233 kts | 331° |
| 2026-04-27 20:39 | 56.53388 | -6.19476 | 16431 ft | 233 kts | 331° |
| 2026-04-27 20:40 | 56.54743 | -6.21110 | 16430 ft | 233 kts | 330° |
| 2026-04-27 20:40 | 56.56094 | -6.22734 | 16434 ft | 233 kts | 330° |
| 2026-04-27 20:40 | 56.57450 | -6.24363 | 16437 ft | 234 kts | 330° |
| 2026-04-27 20:40 | 56.58808 | -6.26002 | 16430 ft | 235 kts | 330° |
| 2026-04-27 20:41 | 56.60170 | -6.27645 | 16426 ft | 235 kts | 330° |
| 2026-04-27 20:41 | 56.61530 | -6.29285 | 16436 ft | 235 kts | 330° |
| 2026-04-27 20:41 | 56.62891 | -6.30928 | 16432 ft | 235 kts | 330° |
| 2026-04-27 20:41 | 56.64253 | -6.32574 | 16429 ft | 235 kts | 330° |
| 2026-04-27 20:42 | 56.65609 | -6.34217 | 16439 ft | 235 kts | 330° |
| 2026-04-27 20:42 | 56.66966 | -6.35862 | 16438 ft | 234 kts | 330° |
| 2026-04-27 20:42 | 56.68328 | -6.37511 | 16436 ft | 234 kts | 330° |
| 2026-04-27 20:42 | 56.69681 | -6.39155 | 16438 ft | 234 kts | 330° |
| 2026-04-27 20:43 | 56.71038 | -6.40803 | 16438 ft | 234 kts | 330° |
| 2026-04-27 20:43 | 56.72396 | -6.42453 | 16434 ft | 235 kts | 330° |
| 2026-04-27 20:43 | 56.73753 | -6.44105 | 16436 ft | 235 kts | 330° |
| 2026-04-27 20:43 | 56.75109 | -6.45757 | 16436 ft | 235 kts | 330° |
| 2026-04-27 20:44 | 56.76467 | -6.47409 | 16435 ft | 235 kts | 330° |
| 2026-04-27 20:44 | 56.77821 | -6.49080 | 16436 ft | 235 kts | 330° |
| 2026-04-27 20:44 | 56.79173 | -6.50745 | 16438 ft | 235 kts | 330° |
| 2026-04-27 20:44 | 56.80531 | -6.52412 | 16435 ft | 235 kts | 330° |
| 2026-04-27 20:45 | 56.81889 | -6.54081 | 16437 ft | 235 kts | 330° |
| 2026-04-27 20:45 | 56.83246 | -6.55755 | 16436 ft | 235 kts | 330° |
| 2026-04-27 20:45 | 56.84601 | -6.57425 | 16438 ft | 235 kts | 330° |
| 2026-04-27 20:45 | 56.85958 | -6.59098 | 16437 ft | 235 kts | 330° |
| 2026-04-27 20:46 | 56.87316 | -6.60774 | 16437 ft | 236 kts | 330° |
| 2026-04-27 20:46 | 56.88673 | -6.62454 | 16436 ft | 235 kts | 330° |
| 2026-04-27 20:46 | 56.90030 | -6.64133 | 16437 ft | 235 kts | 330° |
| 2026-04-27 20:46 | 56.91370 | -6.65793 | 16439 ft | 236 kts | 329° |
| 2026-04-27 20:47 | 56.92742 | -6.67495 | 16439 ft | 236 kts | 330° |
| 2026-04-27 20:47 | 56.94081 | -6.69156 | 16441 ft | 236 kts | 330° |
| 2026-04-27 20:47 | 56.95457 | -6.70864 | 16440 ft | 236 kts | 330° |
| 2026-04-27 20:47 | 56.96814 | -6.72550 | 16440 ft | 236 kts | 330° |
| 2026-04-27 20:48 | 56.98153 | -6.74215 | 16441 ft | 236 kts | 329° |
| 2026-04-27 20:48 | 56.99526 | -6.75931 | 16445 ft | 236 kts | 329° |
| 2026-04-27 20:48 | 57.00880 | -6.77618 | 16445 ft | 236 kts | 330° |
| 2026-04-27 20:48 | 57.02240 | -6.79312 | 16448 ft | 236 kts | 329° |
| 2026-04-27 20:49 | 57.03581 | -6.80985 | 16268 ft | 230 kts | 330° |
| 2026-04-27 20:49 | 57.04893 | -6.82627 | 15864 ft | 227 kts | 330° |
| 2026-04-27 20:49 | 57.06178 | -6.84241 | 15471 ft | 225 kts | 330° |
| 2026-04-27 20:49 | 57.07485 | -6.85878 | 15073 ft | 224 kts | 330° |
| 2026-04-27 20:50 | 57.08764 | -6.87477 | 14694 ft | 222 kts | 330° |
| 2026-04-27 20:50 | 57.10041 | -6.89077 | 14318 ft | 221 kts | 329° |
| 2026-04-27 20:50 | 57.11308 | -6.90668 | 13896 ft | 220 kts | 329° |
| 2026-04-27 20:50 | 57.12553 | -6.92237 | 13481 ft | 219 kts | 329° |
| 2026-04-27 20:51 | 57.13810 | -6.93817 | 13063 ft | 219 kts | 329° |
| 2026-04-27 20:51 | 57.15068 | -6.95395 | 12649 ft | 219 kts | 329° |
| 2026-04-27 20:51 | 57.16325 | -6.96975 | 12235 ft | 218 kts | 329° |
| 2026-04-27 20:51 | 57.17574 | -6.98550 | 11837 ft | 218 kts | 329° |
| 2026-04-27 20:52 | 57.18827 | -7.00127 | 11441 ft | 218 kts | 328° |
| 2026-04-27 20:52 | 57.20072 | -7.01700 | 11049 ft | 217 kts | 328° |
| 2026-04-27 20:52 | 57.21318 | -7.03274 | 10668 ft | 217 kts | 328° |
| 2026-04-27 20:52 | 57.22563 | -7.04846 | 10273 ft | 217 kts | 328° |
| 2026-04-27 20:53 | 57.23809 | -7.06423 | 9846 ft | 217 kts | 328° |
| 2026-04-27 20:53 | 57.25054 | -7.08000 | 9429 ft | 217 kts | 328° |
| 2026-04-27 20:53 | 57.26300 | -7.09575 | 9007 ft | 217 kts | 327° |
| 2026-04-27 20:53 | 57.27543 | -7.11152 | 8606 ft | 217 kts | 327° |
| 2026-04-27 20:54 | 57.30045 | -7.14322 | 7798 ft | 218 kts | 327° |
| 2026-04-27 20:54 | 57.31391 | -7.15404 | 7407 ft | 212 kts | 356° |
| 2026-04-27 20:54 | 57.32835 | -7.14991 | 7011 ft | 211 kts | 16° |
| 2026-04-27 20:55 | 57.34229 | -7.14080 | 6609 ft | 213 kts | 21° |
| 2026-04-27 20:55 | 57.35607 | -7.13041 | 6194 ft | 215 kts | 22° |
| 2026-04-27 20:55 | 57.36990 | -7.11986 | 5782 ft | 216 kts | 22° |
| 2026-04-27 20:55 | 57.38387 | -7.10929 | 5381 ft | 216 kts | 22° |
| 2026-04-27 20:56 | 57.39829 | -7.10308 | 4965 ft | 212 kts | 8° |
| 2026-04-27 20:56 | 57.41294 | -7.09848 | 4551 ft | 214 kts | 11° |
| 2026-04-27 20:56 | 57.42761 | -7.09326 | 4127 ft | 215 kts | 11° |
| 2026-04-27 20:56 | 57.44232 | -7.08788 | 3734 ft | 216 kts | 12° |
| 2026-04-27 20:57 | 57.45707 | -7.08242 | 3317 ft | 216 kts | 12° |
| 2026-04-27 20:57 | 57.47184 | -7.07698 | 2912 ft | 216 kts | 12° |
| 2026-04-27 20:57 | 57.48638 | -7.07166 | 2656 ft | 208 kts | 12° |
| 2026-04-27 20:57 | 57.50015 | -7.06663 | 2554 ft | 196 kts | 12° |
| 2026-04-27 20:58 | 57.51309 | -7.06195 | 2501 ft | 184 kts | 12° |
| 2026-04-27 20:58 | 57.52528 | -7.05758 | 2475 ft | 172 kts | 11° |
| 2026-04-27 20:58 | 57.53670 | -7.05351 | 2461 ft | 163 kts | 11° |
| 2026-04-27 20:58 | 57.54751 | -7.04969 | 2450 ft | 153 kts | 11° |
| 2026-04-27 20:59 | 57.55774 | -7.04608 | 2449 ft | 145 kts | 11° |
| 2026-04-27 20:59 | 57.56736 | -7.04271 | 2447 ft | 137 kts | 11° |
| 2026-04-27 20:59 | 57.57649 | -7.03955 | 2450 ft | 130 kts | 11° |
| 2026-04-27 20:59 | 57.58544 | -7.03683 | 2449 ft | 131 kts | 1° |
| 2026-04-27 21:00 | 57.59320 | -7.04553 | 2480 ft | 147 kts | 294° |
| 2026-04-27 21:00 | 57.59293 | -7.06439 | 2465 ft | 151 kts | 245° |
| 2026-04-27 21:00 | 57.58860 | -7.08199 | 2653 ft | 140 kts | 248° |
| 2026-04-27 21:00 | 57.58512 | -7.09746 | 2824 ft | 130 kts | 245° |
| 2026-04-27 21:01 | 57.58042 | -7.11377 | 2765 ft | 154 kts | 236° |
| 2026-04-27 21:01 | 57.57476 | -7.12974 | 2758 ft | 147 kts | 237° |
| 2026-04-27 21:01 | 57.56903 | -7.14597 | 2606 ft | 147 kts | 236° |
| 2026-04-27 21:01 | 57.56340 | -7.16127 | 2622 ft | 137 kts | 235° |
| 2026-04-27 21:02 | 57.55794 | -7.17535 | 2618 ft | 132 kts | 233° |
| 2026-04-27 21:02 | 57.55241 | -7.18872 | 2613 ft | 129 kts | 232° |
| 2026-04-27 21:02 | 57.54674 | -7.20228 | 2450 ft | 140 kts | 232° |
| 2026-04-27 21:02 | 57.54047 | -7.21715 | 2229 ft | 151 kts | 232° |
| 2026-04-27 21:03 | 57.53378 | -7.23309 | 1987 ft | 160 kts | 232° |
| 2026-04-27 21:03 | 57.52690 | -7.24951 | 1728 ft | 165 kts | 233° |
| 2026-04-27 21:03 | 57.51978 | -7.26649 | 1457 ft | 167 kts | 233° |
| 2026-04-27 21:03 | 57.51277 | -7.28316 | 1173 ft | 157 kts | 233° |
| 2026-04-27 21:04 | 57.50628 | -7.29850 | 886 ft | 146 kts | 233° |
| 2026-04-27 21:04 | 57.50036 | -7.31191 | 697 ft | 124 kts | 231° |
| 2026-04-27 21:04 | 57.49514 | -7.32413 | 367 ft | 117 kts | 236° |
| 2026-04-27 21:04 | 57.49086 | -7.33590 | 182 ft | 106 kts | 240° |
| 2026-04-27 21:05 | 57.48670 | -7.34730 | 70 ft | 110 kts | 238° |
| 2026-04-27 21:05 | 57.48254 | -7.35879 | 17 ft | 102 kts | 239° |
| 2026-04-27 21:05 | 57.47991 | -7.36588 | 23 ft | 26 kts | 237° |
| 2026-04-27 21:05 | 57.47904 | -7.36836 | 21 ft | 21 kts | 235° |
| 2026-04-27 21:06 | 57.47814 | -7.37067 | 19 ft | 24 kts | 232° |
| 2026-04-27 21:06 | 57.47720 | -7.37319 | 22 ft | 24 kts | 236° |
| 2026-04-27 21:06 | 57.47622 | -7.37489 | 26 ft | 14 kts | 172° |
| 2026-04-27 21:06 | 57.47539 | -7.37371 | 22 ft | 16 kts | 147° |
| 2026-04-27 21:07 | 57.47493 | -7.37236 | 24 ft | 12 kts | 99° |
| 2026-04-27 21:07 | 57.47455 | -7.37166 | 23 ft | 7 kts | 223° |
| 2026-04-27 21:07 | 57.47455 | -7.37195 | 24 ft | 0 kts | 293° |